Sevilla Carrier — A8VF2 — position and weather

sailwx.info

Track history (hours):
 
Tides and Currents Weather Stations Pressure Air Temp Water Temp Dewpoint Dewpoint Depression Visibility Wind Speed Wind Dir Waves Ship Positions

Sevilla Carrier

Last reported at 2018-Apr-20 19:26 UTC. Time now 2018-Apr-22 12:08 UTC.
Position N 33°11' E 132°03'.

Length 134 m; draft 5 m.

Type: Cargo ship. MMSI: 636014597.

Date/timePositionNaut miles runAvg speedWind from/ knotsBaromVisibWave heightAir tempDewpointWater temp
2018-Apr-20 19:26N 33°11' E 132°03'920.1
2018-Apr-20 18:58N 33°19' E 131°58'1218.9
2018-Apr-20 18:19N 33°31' E 131°52'619.1
2018-Apr-20 18:00N 33°36' E 131°49'918.8
2018-Apr-20 17:30N 33°44' E 131°43'917.6
2018-Apr-20 17:00N 33°47' E 131°34'918.1
2018-Apr-20 16:30N 33°49' E 131°23'917.3
2018-Apr-20 16:00N 33°51' E 131°13'815.3
2018-Apr-20 15:30N 33°55' E 131°05'511.0
2018-Apr-20 15:00N 33°58' E 130°59'1 1.2
2018-Apr-20 14:30N 33°58' E 130°59'0 0.0
2018-Apr-20 13:58N 33°58' E 130°59'0 0.0
2018-Apr-20 13:28N 33°58' E 130°59'0 0.0
2018-Apr-20 12:58N 33°58' E 130°59'0 0.0
2018-Apr-20 12:29N 33°58' E 130°59'0 0.0
2018-Apr-20 11:59N 33°58' E 130°59'0 0.0
2018-Apr-20 11:29N 33°58' E 130°59'0 0.0
2018-Apr-20 11:00N 33°58' E 130°59'0 0.0
2018-Apr-20 10:30N 33°58' E 130°59'0 0.0
2018-Apr-20 10:00N 33°58' E 130°59'0 0.0
2018-Apr-20 09:25N 33°58' E 130°59'0 0.0
2018-Apr-20 08:58N 33°58' E 130°59'0 0.0
2018-Apr-20 08:25N 33°58' E 130°59'0 0.0
2018-Apr-20 07:59N 33°58' E 130°59'0 0.0
2018-Apr-20 07:29N 33°58' E 130°59'0 0.0
2018-Apr-20 06:59N 33°58' E 130°59'0 0.0
2018-Apr-20 06:30N 33°58' E 130°59'0 0.0
2018-Apr-20 06:00N 33°58' E 130°59'0 0.0
2018-Apr-20 05:30N 33°58' E 130°59'0 0.0
2018-Apr-20 04:58N 33°58' E 130°59'0 0.3
2018-Apr-20 04:30N 33°58' E 130°59'3 6.7
2018-Apr-20 04:00N 33°57' E 131°03'510.0
2018-Apr-20 03:30N 33°54' E 131°07'510.1
2018-Apr-20 03:00N 33°52' E 131°13'612.3
2018-Apr-20 02:30N 33°51' E 131°20'713.6
2018-Apr-20 02:00N 33°49' E 131°28'815.7
2018-Apr-20 01:30N 33°48' E 131°37'815.2
2018-Apr-20 01:00N 33°44' E 131°45'918.2
2018-Apr-20 00:30N 33°35' E 131°50'918.6
2018-Apr-20 00:00N 33°27' E 131°55'1019.4
2018-Apr-19 23:28N 33°18' E 132°01'1418.3
2018-Apr-19 22:41N 33°06' E 132°11'518.3
2018-Apr-19 22:26N 33°02' E 132°14'1418.1
2018-Apr-19 21:41N 32°51' E 132°23'1317.9
2018-Apr-19 20:58N 32°40' E 132°30'816.4
2018-Apr-19 20:28N 32°39' E 132°40'2414.5
2018-Apr-19 18:48N 32°41' E 133°08'617.8
2018-Apr-19 18:28N 32°43' E 133°15'918.1
2018-Apr-19 17:59N 32°45' E 133°25'25317.7
2018-Apr-19 03:42N 34°14' E 138°09'417.5
2018-Apr-19 03:29N 34°16' E 138°14'817.4
2018-Apr-19 03:00N 34°19' E 138°23'917.1
2018-Apr-19 02:31N 34°22' E 138°32'1617.0
2018-Apr-19 01:33N 34°29' E 138°50'217.6
2018-Apr-19 01:28N 34°30' E 138°52'817.0
2018-Apr-19 01:00N 34°34' E 139°00'916.8
2018-Apr-19 00:27N 34°41' E 139°06'817.7
2018-Apr-19 00:00N 34°47' E 139°13'917.3
2018-Apr-18 23:30N 34°53' E 139°20'917.1
2018-Apr-18 22:59N 34°59' E 139°29'816.6
2018-Apr-18 22:31N 35°03' E 139°37'816.6
2018-Apr-18 22:00N 35°09' E 139°44'613.0
2018-Apr-18 21:31N 35°15' E 139°46'510.4
2018-Apr-18 21:00N 35°20' E 139°43'611.4
2018-Apr-18 20:30N 35°25' E 139°43'4 8.1
2018-Apr-18 20:01N 35°28' E 139°39'0 0.9
2018-Apr-18 19:30N 35°29' E 139°39'0 0.0
2018-Apr-18 19:00N 35°29' E 139°39'0 0.0
2018-Apr-18 18:29N 35°29' E 139°39'0 0.0
2018-Apr-18 18:00N 35°29' E 139°39'0 0.0
2018-Apr-18 17:30N 35°29' E 139°39'0 0.0
2018-Apr-18 17:00N 35°29' E 139°39'0 0.0
2018-Apr-18 16:30N 35°29' E 139°39'0 0.0
2018-Apr-18 16:00N 35°29' E 139°39'0 0.0
2018-Apr-18 15:30N 35°29' E 139°39'0 0.0
2018-Apr-18 14:59N 35°29' E 139°39'0 0.1
2018-Apr-18 14:30N 35°29' E 139°39'0 0.1
2018-Apr-18 14:00N 35°29' E 139°39'0 0.0
2018-Apr-18 13:30N 35°29' E 139°39'0 0.0
2018-Apr-18 13:00N 35°29' E 139°39'0 0.0
2018-Apr-18 12:30N 35°29' E 139°39'0 0.0
2018-Apr-18 12:00N 35°29' E 139°39'0 0.0
2018-Apr-18 11:30N 35°29' E 139°39'0 0.0
2018-Apr-18 11:00N 35°29' E 139°39'0 0.0
2018-Apr-18 10:30N 35°29' E 139°39'0 0.0
2018-Apr-18 10:00N 35°29' E 139°39'0 0.0
2018-Apr-18 09:30N 35°29' E 139°39'0 0.0
2018-Apr-18 09:00N 35°29' E 139°39'0 0.0
2018-Apr-18 08:30N 35°29' E 139°39'0 0.0
2018-Apr-18 07:59N 35°29' E 139°39'0 0.0
2018-Apr-18 07:30N 35°29' E 139°39'0 0.0
2018-Apr-18 07:00N 35°29' E 139°39'0 0.0
2018-Apr-18 06:30N 35°29' E 139°39'0 0.0
2018-Apr-18 06:00N 35°29' E 139°39'0 0.0
2018-Apr-18 05:30N 35°29' E 139°39'0 0.0
2018-Apr-18 05:00N 35°29' E 139°39'0 0.0
2018-Apr-18 04:30N 35°29' E 139°39'0 0.0
2018-Apr-18 04:00N 35°29' E 139°39'0 0.0
2018-Apr-18 03:30N 35°29' E 139°39'0 0.0
2018-Apr-18 03:00N 35°29' E 139°39'0 0.0
2018-Apr-18 02:30N 35°29' E 139°39'0 0.0
2018-Apr-18 01:58N 35°29' E 139°39'0 0.0
2018-Apr-18 01:29N 35°29' E 139°39'0 0.4
2018-Apr-18 01:00N 35°28' E 139°39'3 5.1
2018-Apr-18 00:30N 35°27' E 139°41'3 6.2
2018-Apr-18 00:00N 35°24' E 139°43'4 8.0
2018-Apr-17 23:30N 35°20' E 139°43'4 7.9
2018-Apr-17 23:00N 35°17' E 139°46'4 7.8
2018-Apr-17 22:30N 35°13' E 139°47'4 8.1
2018-Apr-17 22:00N 35°09' E 139°46'4 8.5
2018-Apr-17 21:30N 35°05' E 139°45'5 9.3
2018-Apr-17 21:00N 35°01' E 139°43'713.9
2018-Apr-17 20:30N 34°54' E 139°40'714.2
2018-Apr-17 20:00N 34°48' E 139°36'712.2
2018-Apr-17 19:26N 34°41' E 139°33'714.7
2018-Apr-17 18:59N 34°35' E 139°29'916.6
2018-Apr-17 18:26N 34°27' E 139°25'1716.5
2018-Apr-17 17:26N 34°12' E 139°17'918.0
2018-Apr-17 16:55N 34°03' E 139°13'  
Track history (hours):
 
Tides and Currents Weather Stations Pressure Air Temp Water Temp Dewpoint Dewpoint Depression Visibility Wind Speed Wind Dir Waves Ship Positions

Sevilla Carrier

Last reported at 2018-Apr-20 19:26 UTC. Time now 2018-Apr-22 12:08 UTC.
Position N 33°11' E 132°03'.

Length 134 m; draft 5 m.

Type: Cargo ship. MMSI: 636014597.

Date/timePositionNaut miles runAvg speedWind from/ knotsBaromVisibWave heightAir tempDewpointWater temp
2018-Apr-20 19:26N 33°11' E 132°03'920.1
2018-Apr-20 18:58N 33°19' E 131°58'1218.9
2018-Apr-20 18:19N 33°31' E 131°52'619.1
2018-Apr-20 18:00N 33°36' E 131°49'918.8
2018-Apr-20 17:30N 33°44' E 131°43'917.6
2018-Apr-20 17:00N 33°47' E 131°34'918.1
2018-Apr-20 16:30N 33°49' E 131°23'917.3
2018-Apr-20 16:00N 33°51' E 131°13'815.3
2018-Apr-20 15:30N 33°55' E 131°05'511.0
2018-Apr-20 15:00N 33°58' E 130°59'1 1.2
2018-Apr-20 14:30N 33°58' E 130°59'0 0.0
2018-Apr-20 13:58N 33°58' E 130°59'0 0.0
2018-Apr-20 13:28N 33°58' E 130°59'0 0.0
2018-Apr-20 12:58N 33°58' E 130°59'0 0.0
2018-Apr-20 12:29N 33°58' E 130°59'0 0.0
2018-Apr-20 11:59N 33°58' E 130°59'0 0.0
2018-Apr-20 11:29N 33°58' E 130°59'0 0.0
2018-Apr-20 11:00N 33°58' E 130°59'0 0.0
2018-Apr-20 10:30N 33°58' E 130°59'0 0.0
2018-Apr-20 10:00N 33°58' E 130°59'0 0.0
2018-Apr-20 09:25N 33°58' E 130°59'0 0.0
2018-Apr-20 08:58N 33°58' E 130°59'0 0.0
2018-Apr-20 08:25N 33°58' E 130°59'0 0.0
2018-Apr-20 07:59N 33°58' E 130°59'0 0.0
2018-Apr-20 07:29N 33°58' E 130°59'0 0.0
2018-Apr-20 06:59N 33°58' E 130°59'0 0.0
2018-Apr-20 06:30N 33°58' E 130°59'0 0.0
2018-Apr-20 06:00N 33°58' E 130°59'0 0.0
2018-Apr-20 05:30N 33°58' E 130°59'0 0.0
2018-Apr-20 04:58N 33°58' E 130°59'0 0.3
2018-Apr-20 04:30N 33°58' E 130°59'3 6.7
2018-Apr-20 04:00N 33°57' E 131°03'510.0
2018-Apr-20 03:30N 33°54' E 131°07'510.1
2018-Apr-20 03:00N 33°52' E 131°13'612.3
2018-Apr-20 02:30N 33°51' E 131°20'713.6
2018-Apr-20 02:00N 33°49' E 131°28'815.7
2018-Apr-20 01:30N 33°48' E 131°37'815.2
2018-Apr-20 01:00N 33°44' E 131°45'918.2
2018-Apr-20 00:30N 33°35' E 131°50'918.6
2018-Apr-20 00:00N 33°27' E 131°55'1019.4
2018-Apr-19 23:28N 33°18' E 132°01'1418.3
2018-Apr-19 22:41N 33°06' E 132°11'518.3
2018-Apr-19 22:26N 33°02' E 132°14'1418.1
2018-Apr-19 21:41N 32°51' E 132°23'1317.9
2018-Apr-19 20:58N 32°40' E 132°30'816.4
2018-Apr-19 20:28N 32°39' E 132°40'2414.5
2018-Apr-19 18:48N 32°41' E 133°08'617.8
2018-Apr-19 18:28N 32°43' E 133°15'918.1
2018-Apr-19 17:59N 32°45' E 133°25'25317.7
2018-Apr-19 03:42N 34°14' E 138°09'417.5
2018-Apr-19 03:29N 34°16' E 138°14'817.4
2018-Apr-19 03:00N 34°19' E 138°23'917.1
2018-Apr-19 02:31N 34°22' E 138°32'1617.0
2018-Apr-19 01:33N 34°29' E 138°50'217.6
2018-Apr-19 01:28N 34°30' E 138°52'817.0
2018-Apr-19 01:00N 34°34' E 139°00'916.8
2018-Apr-19 00:27N 34°41' E 139°06'817.7
2018-Apr-19 00:00N 34°47' E 139°13'917.3
2018-Apr-18 23:30N 34°53' E 139°20'917.1
2018-Apr-18 22:59N 34°59' E 139°29'816.6
2018-Apr-18 22:31N 35°03' E 139°37'816.6
2018-Apr-18 22:00N 35°09' E 139°44'613.0
2018-Apr-18 21:31N 35°15' E 139°46'510.4
2018-Apr-18 21:00N 35°20' E 139°43'611.4
2018-Apr-18 20:30N 35°25' E 139°43'4 8.1
2018-Apr-18 20:01N 35°28' E 139°39'0 0.9
2018-Apr-18 19:30N 35°29' E 139°39'0 0.0
2018-Apr-18 19:00N 35°29' E 139°39'0 0.0
2018-Apr-18 18:29N 35°29' E 139°39'0 0.0
2018-Apr-18 18:00N 35°29' E 139°39'0 0.0
2018-Apr-18 17:30N 35°29' E 139°39'0 0.0
2018-Apr-18 17:00N 35°29' E 139°39'0 0.0
2018-Apr-18 16:30N 35°29' E 139°39'0 0.0
2018-Apr-18 16:00N 35°29' E 139°39'0 0.0
2018-Apr-18 15:30N 35°29' E 139°39'0 0.0
2018-Apr-18 14:59N 35°29' E 139°39'0 0.1
2018-Apr-18 14:30N 35°29' E 139°39'0 0.1
2018-Apr-18 14:00N 35°29' E 139°39'0 0.0
2018-Apr-18 13:30N 35°29' E 139°39'0 0.0
2018-Apr-18 13:00N 35°29' E 139°39'0 0.0
2018-Apr-18 12:30N 35°29' E 139°39'0 0.0
2018-Apr-18 12:00N 35°29' E 139°39'0 0.0
2018-Apr-18 11:30N 35°29' E 139°39'0 0.0
2018-Apr-18 11:00N 35°29' E 139°39'0 0.0
2018-Apr-18 10:30N 35°29' E 139°39'0 0.0
2018-Apr-18 10:00N 35°29' E 139°39'0 0.0
2018-Apr-18 09:30N 35°29' E 139°39'0 0.0
2018-Apr-18 09:00N 35°29' E 139°39'0 0.0
2018-Apr-18 08:30N 35°29' E 139°39'0 0.0
2018-Apr-18 07:59N 35°29' E 139°39'0 0.0
2018-Apr-18 07:30N 35°29' E 139°39'0 0.0
2018-Apr-18 07:00N 35°29' E 139°39'0 0.0
2018-Apr-18 06:30N 35°29' E 139°39'0 0.0
2018-Apr-18 06:00N 35°29' E 139°39'0 0.0
2018-Apr-18 05:30N 35°29' E 139°39'0 0.0
2018-Apr-18 05:00N 35°29' E 139°39'0 0.0
2018-Apr-18 04:30N 35°29' E 139°39'0 0.0
2018-Apr-18 04:00N 35°29' E 139°39'0 0.0
2018-Apr-18 03:30N 35°29' E 139°39'0 0.0
2018-Apr-18 03:00N 35°29' E 139°39'0 0.0
2018-Apr-18 02:30N 35°29' E 139°39'0 0.0
2018-Apr-18 01:58N 35°29' E 139°39'0 0.0
2018-Apr-18 01:29N 35°29' E 139°39'0 0.4
2018-Apr-18 01:00N 35°28' E 139°39'3 5.1
2018-Apr-18 00:30N 35°27' E 139°41'3 6.2
2018-Apr-18 00:00N 35°24' E 139°43'4 8.0
2018-Apr-17 23:30N 35°20' E 139°43'4 7.9
2018-Apr-17 23:00N 35°17' E 139°46'4 7.8
2018-Apr-17 22:30N 35°13' E 139°47'4 8.1
2018-Apr-17 22:00N 35°09' E 139°46'4 8.5
2018-Apr-17 21:30N 35°05' E 139°45'5 9.3
2018-Apr-17 21:00N 35°01' E 139°43'713.9
2018-Apr-17 20:30N 34°54' E 139°40'714.2
2018-Apr-17 20:00N 34°48' E 139°36'712.2
2018-Apr-17 19:26N 34°41' E 139°33'714.7
2018-Apr-17 18:59N 34°35' E 139°29'916.6
2018-Apr-17 18:26N 34°27' E 139°25'1716.5
2018-Apr-17 17:26N 34°12' E 139°17'918.0
2018-Apr-17 16:55N 34°03' E 139°13'  

Dump ship's entire track history